sensor_id;sensor_type;location;lat;lon;timestamp;temperature;humidity
13409;DHT22;6775;49.574;11.170;2024-03-22T00:01:12;6.70;99.90
13409;DHT22;6775;49.574;11.170;2024-03-22T00:03:38;6.60;99.90
13409;DHT22;6775;49.574;11.170;2024-03-22T00:06:06;6.60;99.90
13409;DHT22;6775;49.574;11.170;2024-03-22T00:08:33;6.60;99.90
13409;DHT22;6775;49.574;11.170;2024-03-22T00:11:01;6.60;99.90
13409;DHT22;6775;49.574;11.170;2024-03-22T00:13:29;6.70;99.90
13409;DHT22;6775;49.574;11.170;2024-03-22T00:15:55;6.70;99.90
13409;DHT22;6775;49.574;11.170;2024-03-22T00:18:23;6.70;99.90
13409;DHT22;6775;49.574;11.170;2024-03-22T00:20:49;6.70;99.90
13409;DHT22;6775;49.574;11.170;2024-03-22T00:23:17;6.60;99.90
13409;DHT22;6775;49.574;11.170;2024-03-22T00:25:43;6.60;99.90
13409;DHT22;6775;49.574;11.170;2024-03-22T00:28:12;6.50;99.90
13409;DHT22;6775;49.574;11.170;2024-03-22T00:30:38;6.40;99.90
13409;DHT22;6775;49.574;11.170;2024-03-22T00:33:06;6.30;99.90
13409;DHT22;6775;49.574;11.170;2024-03-22T00:35:32;6.20;99.90
13409;DHT22;6775;49.574;11.170;2024-03-22T00:38:00;6.10;99.90
13409;DHT22;6775;49.574;11.170;2024-03-22T00:40:26;6.00;99.90
13409;DHT22;6775;49.574;11.170;2024-03-22T00:42:54;5.90;99.90
13409;DHT22;6775;49.574;11.170;2024-03-22T00:45:21;5.90;99.90
13409;DHT22;6775;49.574;11.170;2024-03-22T00:47:49;5.80;99.90
13409;DHT22;6775;49.574;11.170;2024-03-22T00:50:15;5.70;99.90
13409;DHT22;6775;49.574;11.170;2024-03-22T00:52:43;5.70;99.90
13409;DHT22;6775;49.574;11.170;2024-03-22T00:55:09;5.70;99.90
13409;DHT22;6775;49.574;11.170;2024-03-22T00:57:37;5.60;99.90
13409;DHT22;6775;49.574;11.170;2024-03-22T01:00:04;5.60;99.90
13409;DHT22;6775;49.574;11.170;2024-03-22T01:02:33;5.60;99.90
13409;DHT22;6775;49.574;11.170;2024-03-22T01:05:00;5.50;99.90
13409;DHT22;6775;49.574;11.170;2024-03-22T01:07:27;5.60;99.90
13409;DHT22;6775;49.574;11.170;2024-03-22T01:09:53;5.50;99.90
13409;DHT22;6775;49.574;11.170;2024-03-22T01:12:21;5.50;99.90
13409;DHT22;6775;49.574;11.170;2024-03-22T01:14:48;5.50;99.90
13409;DHT22;6775;49.574;11.170;2024-03-22T01:17:15;5.40;99.90
13409;DHT22;6775;49.574;11.170;2024-03-22T01:19:43;5.40;99.90
13409;DHT22;6775;49.574;11.170;2024-03-22T01:22:10;5.30;99.90
13409;DHT22;6775;49.574;11.170;2024-03-22T01:24:37;5.20;99.90
13409;DHT22;6775;49.574;11.170;2024-03-22T01:27:04;5.10;99.90
13409;DHT22;6775;49.574;11.170;2024-03-22T01:29:31;5.00;99.90
13409;DHT22;6775;49.574;11.170;2024-03-22T01:31:58;5.00;99.90
13409;DHT22;6775;49.574;11.170;2024-03-22T01:34:25;4.90;99.90
13409;DHT22;6775;49.574;11.170;2024-03-22T01:36:54;4.90;99.90
13409;DHT22;6775;49.574;11.170;2024-03-22T01:39:21;4.80;99.90
13409;DHT22;6775;49.574;11.170;2024-03-22T01:41:49;4.70;99.90
13409;DHT22;6775;49.574;11.170;2024-03-22T01:44:15;4.60;99.90
13409;DHT22;6775;49.574;11.170;2024-03-22T01:46:44;4.60;99.90
13409;DHT22;6775;49.574;11.170;2024-03-22T01:49:14;4.50;99.90
13409;DHT22;6775;49.574;11.170;2024-03-22T01:51:43;4.50;99.90
13409;DHT22;6775;49.574;11.170;2024-03-22T01:54:11;4.50;99.90
13409;DHT22;6775;49.574;11.170;2024-03-22T01:56:39;4.40;99.90
13409;DHT22;6775;49.574;11.170;2024-03-22T01:59:06;4.40;99.90
13409;DHT22;6775;49.574;11.170;2024-03-22T02:01:34;4.30;99.90
13409;DHT22;6775;49.574;11.170;2024-03-22T02:04:02;4.20;99.90
13409;DHT22;6775;49.574;11.170;2024-03-22T02:06:30;4.10;99.90
13409;DHT22;6775;49.574;11.170;2024-03-22T02:08:57;4.00;99.90
13409;DHT22;6775;49.574;11.170;2024-03-22T02:11:27;3.90;99.90
13409;DHT22;6775;49.574;11.170;2024-03-22T02:13:54;3.80;99.90
13409;DHT22;6775;49.574;11.170;2024-03-22T02:16:22;3.70;99.90
13409;DHT22;6775;49.574;11.170;2024-03-22T02:18:48;3.70;99.90
13409;DHT22;6775;49.574;11.170;2024-03-22T02:21:16;3.60;99.90
13409;DHT22;6775;49.574;11.170;2024-03-22T02:23:44;3.60;99.90
13409;DHT22;6775;49.574;11.170;2024-03-22T02:26:11;3.60;99.90
13409;DHT22;6775;49.574;11.170;2024-03-22T02:28:38;3.60;99.90
13409;DHT22;6775;49.574;11.170;2024-03-22T02:31:05;3.60;99.90
13409;DHT22;6775;49.574;11.170;2024-03-22T02:33:32;3.70;99.90
13409;DHT22;6775;49.574;11.170;2024-03-22T02:35:59;3.80;99.90
13409;DHT22;6775;49.574;11.170;2024-03-22T02:38:26;3.90;99.90
13409;DHT22;6775;49.574;11.170;2024-03-22T02:40:55;4.00;99.90
13409;DHT22;6775;49.574;11.170;2024-03-22T02:43:24;4.00;99.90
13409;DHT22;6775;49.574;11.170;2024-03-22T02:45:51;4.00;99.90
13409;DHT22;6775;49.574;11.170;2024-03-22T02:48:18;3.90;99.90
13409;DHT22;6775;49.574;11.170;2024-03-22T02:50:45;3.90;99.90
13409;DHT22;6775;49.574;11.170;2024-03-22T02:53:11;3.80;99.90
13409;DHT22;6775;49.574;11.170;2024-03-22T02:55:40;3.70;99.90
13409;DHT22;6775;49.574;11.170;2024-03-22T02:58:08;3.70;99.90
13409;DHT22;6775;49.574;11.170;2024-03-22T03:00:36;3.70;99.90
13409;DHT22;6775;49.574;11.170;2024-03-22T03:03:04;3.80;99.90
13409;DHT22;6775;49.574;11.170;2024-03-22T03:05:32;3.80;99.90
13409;DHT22;6775;49.574;11.170;2024-03-22T03:07:58;3.80;99.90
13409;DHT22;6775;49.574;11.170;2024-03-22T03:10:26;3.80;99.90
13409;DHT22;6775;49.574;11.170;2024-03-22T03:12:54;3.90;99.90
13409;DHT22;6775;49.574;11.170;2024-03-22T03:15:23;3.80;99.90
13409;DHT22;6775;49.574;11.170;2024-03-22T03:17:49;3.80;99.90
13409;DHT22;6775;49.574;11.170;2024-03-22T03:20:18;3.90;99.90
13409;DHT22;6775;49.574;11.170;2024-03-22T03:22:44;3.90;99.90
13409;DHT22;6775;49.574;11.170;2024-03-22T03:25:12;3.90;99.90
13409;DHT22;6775;49.574;11.170;2024-03-22T03:27:38;3.90;99.90
13409;DHT22;6775;49.574;11.170;2024-03-22T03:30:07;3.90;99.90
13409;DHT22;6775;49.574;11.170;2024-03-22T03:32:35;3.90;99.90
13409;DHT22;6775;49.574;11.170;2024-03-22T03:35:03;3.80;99.90
13409;DHT22;6775;49.574;11.170;2024-03-22T03:37:31;3.80;99.90
13409;DHT22;6775;49.574;11.170;2024-03-22T03:39:58;3.80;99.90
13409;DHT22;6775;49.574;11.170;2024-03-22T03:42:25;3.70;99.90
13409;DHT22;6775;49.574;11.170;2024-03-22T03:44:52;3.70;99.90
13409;DHT22;6775;49.574;11.170;2024-03-22T03:47:19;3.60;99.90
13409;DHT22;6775;49.574;11.170;2024-03-22T03:49:48;3.60;99.90
13409;DHT22;6775;49.574;11.170;2024-03-22T03:52:14;3.60;99.90
13409;DHT22;6775;49.574;11.170;2024-03-22T03:54:42;3.60;99.90
13409;DHT22;6775;49.574;11.170;2024-03-22T03:57:08;3.60;99.90
13409;DHT22;6775;49.574;11.170;2024-03-22T03:59:36;3.70;99.90
13409;DHT22;6775;49.574;11.170;2024-03-22T04:02:02;3.70;99.90
13409;DHT22;6775;49.574;11.170;2024-03-22T04:04:30;3.70;99.90
13409;DHT22;6775;49.574;11.170;2024-03-22T04:06:58;3.70;99.90
13409;DHT22;6775;49.574;11.170;2024-03-22T04:09:25;3.70;99.90
13409;DHT22;6775;49.574;11.170;2024-03-22T04:11:52;3.80;99.90
13409;DHT22;6775;49.574;11.170;2024-03-22T04:14:19;3.80;99.90
13409;DHT22;6775;49.574;11.170;2024-03-22T04:16:46;3.80;99.90
13409;DHT22;6775;49.574;11.170;2024-03-22T04:19:13;3.90;99.90
13409;DHT22;6775;49.574;11.170;2024-03-22T04:21:40;3.90;99.90
13409;DHT22;6775;49.574;11.170;2024-03-22T04:24:09;4.00;99.90
13409;DHT22;6775;49.574;11.170;2024-03-22T04:26:35;4.00;99.90
13409;DHT22;6775;49.574;11.170;2024-03-22T04:29:03;4.00;99.90
13409;DHT22;6775;49.574;11.170;2024-03-22T04:31:29;4.00;99.90
13409;DHT22;6775;49.574;11.170;2024-03-22T04:33:57;3.90;99.90
13409;DHT22;6775;49.574;11.170;2024-03-22T04:36:23;3.90;99.90
13409;DHT22;6775;49.574;11.170;2024-03-22T04:38:51;3.80;99.90
13409;DHT22;6775;49.574;11.170;2024-03-22T04:41:20;3.80;99.90
13409;DHT22;6775;49.574;11.170;2024-03-22T04:43:47;3.80;99.90
13409;DHT22;6775;49.574;11.170;2024-03-22T04:46:15;3.80;99.90
13409;DHT22;6775;49.574;11.170;2024-03-22T04:48:41;3.70;99.90
13409;DHT22;6775;49.574;11.170;2024-03-22T04:51:09;3.70;99.90
13409;DHT22;6775;49.574;11.170;2024-03-22T04:53:36;3.70;99.90
13409;DHT22;6775;49.574;11.170;2024-03-22T04:56:04;3.60;99.90
13409;DHT22;6775;49.574;11.170;2024-03-22T04:58:34;3.60;99.90
13409;DHT22;6775;49.574;11.170;2024-03-22T05:01:01;3.60;99.90
13409;DHT22;6775;49.574;11.170;2024-03-22T05:03:28;3.60;99.90
13409;DHT22;6775;49.574;11.170;2024-03-22T05:05:56;3.60;99.90
13409;DHT22;6775;49.574;11.170;2024-03-22T05:08:24;3.60;99.90
13409;DHT22;6775;49.574;11.170;2024-03-22T05:10:50;3.60;99.90
13409;DHT22;6775;49.574;11.170;2024-03-22T05:13:19;3.70;99.90
13409;DHT22;6775;49.574;11.170;2024-03-22T05:15:48;3.60;99.90
13409;DHT22;6775;49.574;11.170;2024-03-22T05:18:15;3.50;99.90
13409;DHT22;6775;49.574;11.170;2024-03-22T05:20:42;3.40;99.90
13409;DHT22;6775;49.574;11.170;2024-03-22T05:23:09;3.30;99.90
13409;DHT22;6775;49.574;11.170;2024-03-22T05:25:36;3.30;99.90
13409;DHT22;6775;49.574;11.170;2024-03-22T05:28:03;3.30;99.90
13409;DHT22;6775;49.574;11.170;2024-03-22T05:30:30;3.20;99.90
13409;DHT22;6775;49.574;11.170;2024-03-22T05:32:59;3.10;99.90
13409;DHT22;6775;49.574;11.170;2024-03-22T05:35:26;3.10;99.90
13409;DHT22;6775;49.574;11.170;2024-03-22T05:37:54;3.00;99.90
13409;DHT22;6775;49.574;11.170;2024-03-22T05:40:20;3.00;99.90
13409;DHT22;6775;49.574;11.170;2024-03-22T05:42:48;3.00;99.90
13409;DHT22;6775;49.574;11.170;2024-03-22T05:45:16;3.00;99.90
13409;DHT22;6775;49.574;11.170;2024-03-22T05:47:43;3.10;99.90
13409;DHT22;6775;49.574;11.170;2024-03-22T05:50:12;3.20;99.90
13409;DHT22;6775;49.574;11.170;2024-03-22T05:52:40;3.30;99.90
13409;DHT22;6775;49.574;11.170;2024-03-22T05:55:08;3.50;99.90
13409;DHT22;6775;49.574;11.170;2024-03-22T05:57:34;3.60;99.90
13409;DHT22;6775;49.574;11.170;2024-03-22T06:00:02;3.80;99.90
13409;DHT22;6775;49.574;11.170;2024-03-22T06:02:29;3.90;99.90
13409;DHT22;6775;49.574;11.170;2024-03-22T06:04:56;4.00;99.90
13409;DHT22;6775;49.574;11.170;2024-03-22T06:07:24;4.00;99.90
13409;DHT22;6775;49.574;11.170;2024-03-22T06:09:52;4.10;99.90
13409;DHT22;6775;49.574;11.170;2024-03-22T06:12:18;4.20;99.90
13409;DHT22;6775;49.574;11.170;2024-03-22T06:14:47;4.20;99.90
13409;DHT22;6775;49.574;11.170;2024-03-22T06:17:14;4.30;99.90
13409;DHT22;6775;49.574;11.170;2024-03-22T06:19:42;4.30;99.90
13409;DHT22;6775;49.574;11.170;2024-03-22T06:22:09;4.30;99.90
13409;DHT22;6775;49.574;11.170;2024-03-22T06:24:38;4.30;99.90
13409;DHT22;6775;49.574;11.170;2024-03-22T06:27:04;4.40;99.90
13409;DHT22;6775;49.574;11.170;2024-03-22T06:29:33;4.50;99.90
13409;DHT22;6775;49.574;11.170;2024-03-22T06:31:59;4.60;99.90
13409;DHT22;6775;49.574;11.170;2024-03-22T06:34:27;4.80;99.90
13409;DHT22;6775;49.574;11.170;2024-03-22T06:36:53;4.90;99.90
13409;DHT22;6775;49.574;11.170;2024-03-22T06:39:21;5.20;99.90
13409;DHT22;6775;49.574;11.170;2024-03-22T06:41:48;5.40;99.90
13409;DHT22;6775;49.574;11.170;2024-03-22T06:44:16;5.60;99.90
13409;DHT22;6775;49.574;11.170;2024-03-22T06:46:43;5.80;99.90
13409;DHT22;6775;49.574;11.170;2024-03-22T06:49:10;5.90;99.90
13409;DHT22;6775;49.574;11.170;2024-03-22T06:51:36;6.10;99.90
13409;DHT22;6775;49.574;11.170;2024-03-22T06:54:04;6.10;99.90
13409;DHT22;6775;49.574;11.170;2024-03-22T06:56:31;6.20;99.90
13409;DHT22;6775;49.574;11.170;2024-03-22T06:59:00;6.30;99.90
13409;DHT22;6775;49.574;11.170;2024-03-22T07:01:26;6.30;99.90
13409;DHT22;6775;49.574;11.170;2024-03-22T07:03:54;6.30;99.90
13409;DHT22;6775;49.574;11.170;2024-03-22T07:06:20;6.30;99.90
13409;DHT22;6775;49.574;11.170;2024-03-22T07:08:48;6.30;99.90
13409;DHT22;6775;49.574;11.170;2024-03-22T07:11:14;6.30;99.90
13409;DHT22;6775;49.574;11.170;2024-03-22T07:13:42;6.30;99.90
13409;DHT22;6775;49.574;11.170;2024-03-22T07:16:09;6.30;99.90
13409;DHT22;6775;49.574;11.170;2024-03-22T07:18:37;6.30;99.90
13409;DHT22;6775;49.574;11.170;2024-03-22T07:21:04;6.40;99.90
13409;DHT22;6775;49.574;11.170;2024-03-22T07:23:31;6.40;99.90
13409;DHT22;6775;49.574;11.170;2024-03-22T07:25:58;6.50;99.90
13409;DHT22;6775;49.574;11.170;2024-03-22T07:28:26;6.60;99.90
13409;DHT22;6775;49.574;11.170;2024-03-22T07:30:53;6.70;99.90
13409;DHT22;6775;49.574;11.170;2024-03-22T07:33:22;6.80;99.90
13409;DHT22;6775;49.574;11.170;2024-03-22T07:35:49;6.80;99.90
13409;DHT22;6775;49.574;11.170;2024-03-22T07:38:16;7.00;99.90
13409;DHT22;6775;49.574;11.170;2024-03-22T07:40:42;7.10;99.90
13409;DHT22;6775;49.574;11.170;2024-03-22T07:43:10;7.10;99.90
13409;DHT22;6775;49.574;11.170;2024-03-22T07:45:37;7.20;99.90
13409;DHT22;6775;49.574;11.170;2024-03-22T07:48:05;7.20;99.90
13409;DHT22;6775;49.574;11.170;2024-03-22T07:50:33;7.30;99.90
13409;DHT22;6775;49.574;11.170;2024-03-22T07:53:01;7.50;99.90
13409;DHT22;6775;49.574;11.170;2024-03-22T07:55:27;7.50;99.90
13409;DHT22;6775;49.574;11.170;2024-03-22T07:57:55;7.60;99.90
13409;DHT22;6775;49.574;11.170;2024-03-22T08:00:23;7.70;99.90
13409;DHT22;6775;49.574;11.170;2024-03-22T08:02:52;7.80;99.90
13409;DHT22;6775;49.574;11.170;2024-03-22T08:05:19;7.90;99.90
13409;DHT22;6775;49.574;11.170;2024-03-22T08:07:47;8.00;99.90
13409;DHT22;6775;49.574;11.170;2024-03-22T08:10:14;8.10;99.90
13409;DHT22;6775;49.574;11.170;2024-03-22T08:12:42;8.20;99.90
13409;DHT22;6775;49.574;11.170;2024-03-22T08:15:08;8.30;99.90
13409;DHT22;6775;49.574;11.170;2024-03-22T08:17:36;8.40;99.90
13409;DHT22;6775;49.574;11.170;2024-03-22T08:20:03;8.60;99.90
13409;DHT22;6775;49.574;11.170;2024-03-22T08:22:32;8.80;99.90
13409;DHT22;6775;49.574;11.170;2024-03-22T08:24:59;9.00;99.90
13409;DHT22;6775;49.574;11.170;2024-03-22T08:27:28;9.10;99.90
13409;DHT22;6775;49.574;11.170;2024-03-22T08:29:54;9.30;99.90
13409;DHT22;6775;49.574;11.170;2024-03-22T08:32:22;9.40;99.90
13409;DHT22;6775;49.574;11.170;2024-03-22T08:34:48;9.50;99.90
13409;DHT22;6775;49.574;11.170;2024-03-22T08:37:16;9.60;99.90
13409;DHT22;6775;49.574;11.170;2024-03-22T08:39:42;9.70;99.90
13409;DHT22;6775;49.574;11.170;2024-03-22T08:42:11;10.00;99.90
13409;DHT22;6775;49.574;11.170;2024-03-22T08:44:38;10.50;99.90
13409;DHT22;6775;49.574;11.170;2024-03-22T08:47:05;11.10;99.90
13409;DHT22;6775;49.574;11.170;2024-03-22T08:49:32;11.60;99.90
13409;DHT22;6775;49.574;11.170;2024-03-22T08:52:02;11.90;99.90
13409;DHT22;6775;49.574;11.170;2024-03-22T08:54:28;12.10;99.90
13409;DHT22;6775;49.574;11.170;2024-03-22T08:56:56;12.30;99.90
13409;DHT22;6775;49.574;11.170;2024-03-22T08:59:24;12.40;99.90
13409;DHT22;6775;49.574;11.170;2024-03-22T09:01:52;12.70;99.90
13409;DHT22;6775;49.574;11.170;2024-03-22T09:04:19;13.00;99.90
13409;DHT22;6775;49.574;11.170;2024-03-22T09:06:46;13.50;99.90
13409;DHT22;6775;49.574;11.170;2024-03-22T09:09:13;14.00;99.90
13409;DHT22;6775;49.574;11.170;2024-03-22T09:11:40;14.40;99.90
13409;DHT22;6775;49.574;11.170;2024-03-22T09:14:06;14.90;99.90
13409;DHT22;6775;49.574;11.170;2024-03-22T09:16:35;15.30;99.90
13409;DHT22;6775;49.574;11.170;2024-03-22T09:19:02;15.50;99.90
13409;DHT22;6775;49.574;11.170;2024-03-22T09:21:29;15.70;99.90
13409;DHT22;6775;49.574;11.170;2024-03-22T09:23:57;16.00;99.90
13409;DHT22;6775;49.574;11.170;2024-03-22T09:26:25;16.10;99.90
13409;DHT22;6775;49.574;11.170;2024-03-22T09:28:51;16.30;99.90
13409;DHT22;6775;49.574;11.170;2024-03-22T09:31:19;16.40;99.90
13409;DHT22;6775;49.574;11.170;2024-03-22T09:33:47;16.60;99.90
13409;DHT22;6775;49.574;11.170;2024-03-22T09:36:14;16.80;99.90
13409;DHT22;6775;49.574;11.170;2024-03-22T09:38:41;17.10;99.90
13409;DHT22;6775;49.574;11.170;2024-03-22T09:41:09;17.30;99.90
13409;DHT22;6775;49.574;11.170;2024-03-22T09:43:35;17.70;99.90
13409;DHT22;6775;49.574;11.170;2024-03-22T09:46:05;17.90;99.90
13409;DHT22;6775;49.574;11.170;2024-03-22T09:48:33;18.20;99.90
13409;DHT22;6775;49.574;11.170;2024-03-22T09:51:04;18.30;99.90
13409;DHT22;6775;49.574;11.170;2024-03-22T09:53:32;18.30;99.90
13409;DHT22;6775;49.574;11.170;2024-03-22T09:56:00;18.40;99.90
13409;DHT22;6775;49.574;11.170;2024-03-22T09:58:27;18.30;99.90
13409;DHT22;6775;49.574;11.170;2024-03-22T10:00:55;18.20;99.90
13409;DHT22;6775;49.574;11.170;2024-03-22T10:03:26;18.20;99.90
13409;DHT22;6775;49.574;11.170;2024-03-22T10:05:54;18.40;99.90
13409;DHT22;6775;49.574;11.170;2024-03-22T10:08:21;18.80;99.90
13409;DHT22;6775;49.574;11.170;2024-03-22T10:10:49;19.40;99.80
13409;DHT22;6775;49.574;11.170;2024-03-22T10:13:15;20.00;97.50
13409;DHT22;6775;49.574;11.170;2024-03-22T10:15:43;20.30;93.60
13409;DHT22;6775;49.574;11.170;2024-03-22T10:18:10;20.10;93.40
13409;DHT22;6775;49.574;11.170;2024-03-22T10:20:37;19.80;94.50
13409;DHT22;6775;49.574;11.170;2024-03-22T10:23:04;19.60;95.20
13409;DHT22;6775;49.574;11.170;2024-03-22T10:25:33;19.40;94.80
13409;DHT22;6775;49.574;11.170;2024-03-22T10:28:01;19.30;93.70
13409;DHT22;6775;49.574;11.170;2024-03-22T10:30:30;19.30;91.90
13409;DHT22;6775;49.574;11.170;2024-03-22T10:32:57;19.30;92.40
13409;DHT22;6775;49.574;11.170;2024-03-22T10:35:25;19.40;92.80
13409;DHT22;6775;49.574;11.170;2024-03-22T10:37:52;19.30;91.80
13409;DHT22;6775;49.574;11.170;2024-03-22T10:40:20;19.20;91.30
13409;DHT22;6775;49.574;11.170;2024-03-22T10:42:50;19.10;91.30
13409;DHT22;6775;49.574;11.170;2024-03-22T10:45:17;19.00;90.90
13409;DHT22;6775;49.574;11.170;2024-03-22T10:47:49;19.00;90.70
13409;DHT22;6775;49.574;11.170;2024-03-22T10:50:19;19.00;87.80
13409;DHT22;6775;49.574;11.170;2024-03-22T10:52:50;18.80;90.70
13409;DHT22;6775;49.574;11.170;2024-03-22T10:55:24;19.00;90.10
13409;DHT22;6775;49.574;11.170;2024-03-22T10:57:55;19.20;89.50
13409;DHT22;6775;49.574;11.170;2024-03-22T11:00:27;19.20;89.60
13409;DHT22;6775;49.574;11.170;2024-03-22T11:02:55;19.10;90.00
13409;DHT22;6775;49.574;11.170;2024-03-22T11:05:23;19.10;90.30
13409;DHT22;6775;49.574;11.170;2024-03-22T11:07:59;19.00;90.60
13409;DHT22;6775;49.574;11.170;2024-03-22T11:10:29;19.00;89.60
13409;DHT22;6775;49.574;11.170;2024-03-22T11:13:01;19.10;88.60
13409;DHT22;6775;49.574;11.170;2024-03-22T11:15:29;19.30;87.80
13409;DHT22;6775;49.574;11.170;2024-03-22T11:17:56;19.40;87.10
13409;DHT22;6775;49.574;11.170;2024-03-22T11:20:25;19.30;88.40
13409;DHT22;6775;49.574;11.170;2024-03-22T11:22:52;19.30;89.10
13409;DHT22;6775;49.574;11.170;2024-03-22T11:25:20;19.00;88.10
13409;DHT22;6775;49.574;11.170;2024-03-22T11:27:46;18.80;89.70
13409;DHT22;6775;49.574;11.170;2024-03-22T11:30:15;18.90;89.80
13409;DHT22;6775;49.574;11.170;2024-03-22T11:32:43;19.00;90.30
13409;DHT22;6775;49.574;11.170;2024-03-22T11:35:12;19.00;89.80
13409;DHT22;6775;49.574;11.170;2024-03-22T11:37:39;18.90;89.00
13409;DHT22;6775;49.574;11.170;2024-03-22T11:40:09;18.80;88.50
13409;DHT22;6775;49.574;11.170;2024-03-22T11:42:36;18.90;89.70
13409;DHT22;6775;49.574;11.170;2024-03-22T11:45:06;19.10;89.20
13409;DHT22;6775;49.574;11.170;2024-03-22T11:47:36;19.50;86.80
13409;DHT22;6775;49.574;11.170;2024-03-22T11:50:04;20.10;85.50
13409;DHT22;6775;49.574;11.170;2024-03-22T11:52:31;20.40;85.00
13409;DHT22;6775;49.574;11.170;2024-03-22T11:54:59;20.50;81.80
13409;DHT22;6775;49.574;11.170;2024-03-22T11:57:25;20.40;82.00
13409;DHT22;6775;49.574;11.170;2024-03-22T11:59:59;20.40;81.50
13409;DHT22;6775;49.574;11.170;2024-03-22T12:02:26;20.40;81.10
13409;DHT22;6775;49.574;11.170;2024-03-22T12:04:55;20.40;81.10
13409;DHT22;6775;49.574;11.170;2024-03-22T12:07:21;20.50;81.60
13409;DHT22;6775;49.574;11.170;2024-03-22T12:09:49;20.60;81.70
13409;DHT22;6775;49.574;11.170;2024-03-22T12:12:15;20.70;81.10
13409;DHT22;6775;49.574;11.170;2024-03-22T12:14:43;20.90;81.00
13409;DHT22;6775;49.574;11.170;2024-03-22T12:17:09;21.10;80.10
13409;DHT22;6775;49.574;11.170;2024-03-22T12:19:37;20.90;79.20
13409;DHT22;6775;49.574;11.170;2024-03-22T12:22:05;20.90;79.30
13409;DHT22;6775;49.574;11.170;2024-03-22T12:24:33;20.90;77.60
13409;DHT22;6775;49.574;11.170;2024-03-22T12:27:00;21.10;78.00
13409;DHT22;6775;49.574;11.170;2024-03-22T12:29:28;21.30;77.70
13409;DHT22;6775;49.574;11.170;2024-03-22T12:31:54;21.30;77.60
13409;DHT22;6775;49.574;11.170;2024-03-22T12:34:22;21.30;77.00
13409;DHT22;6775;49.574;11.170;2024-03-22T12:36:48;21.20;76.70
13409;DHT22;6775;49.574;11.170;2024-03-22T12:39:17;21.30;77.90
13409;DHT22;6775;49.574;11.170;2024-03-22T12:41:44;21.20;75.70
13409;DHT22;6775;49.574;11.170;2024-03-22T12:44:11;21.10;76.80
13409;DHT22;6775;49.574;11.170;2024-03-22T12:46:38;21.20;76.90
13409;DHT22;6775;49.574;11.170;2024-03-22T12:49:08;21.20;75.10
13409;DHT22;6775;49.574;11.170;2024-03-22T12:51:35;21.30;75.50
13409;DHT22;6775;49.574;11.170;2024-03-22T12:54:04;21.40;74.80
13409;DHT22;6775;49.574;11.170;2024-03-22T12:56:32;21.60;74.70
13409;DHT22;6775;49.574;11.170;2024-03-22T12:59:00;21.40;71.80
13409;DHT22;6775;49.574;11.170;2024-03-22T13:01:26;21.10;73.20
13409;DHT22;6775;49.574;11.170;2024-03-22T13:03:55;21.00;72.30
13409;DHT22;6775;49.574;11.170;2024-03-22T13:06:22;20.80;73.50
13409;DHT22;6775;49.574;11.170;2024-03-22T13:08:50;20.90;73.60
13409;DHT22;6775;49.574;11.170;2024-03-22T13:11:17;21.00;73.40
13409;DHT22;6775;49.574;11.170;2024-03-22T13:13:46;21.10;73.40
13409;DHT22;6775;49.574;11.170;2024-03-22T13:16:12;21.20;73.60
13409;DHT22;6775;49.574;11.170;2024-03-22T13:18:41;21.50;73.50
13409;DHT22;6775;49.574;11.170;2024-03-22T13:21:08;21.70;72.90
13409;DHT22;6775;49.574;11.170;2024-03-22T13:23:35;21.90;70.00
13409;DHT22;6775;49.574;11.170;2024-03-22T13:26:03;22.00;68.80
13409;DHT22;6775;49.574;11.170;2024-03-22T13:28:32;22.00;69.60
13409;DHT22;6775;49.574;11.170;2024-03-22T13:31:04;22.00;68.40
13409;DHT22;6775;49.574;11.170;2024-03-22T13:33:33;21.90;67.40
13409;DHT22;6775;49.574;11.170;2024-03-22T13:36:00;21.90;66.20
13409;DHT22;6775;49.574;11.170;2024-03-22T13:38:28;21.80;64.50
13409;DHT22;6775;49.574;11.170;2024-03-22T13:40:55;21.50;63.90
13409;DHT22;6775;49.574;11.170;2024-03-22T13:43:23;21.10;64.20
13409;DHT22;6775;49.574;11.170;2024-03-22T13:45:53;20.90;66.60
13409;DHT22;6775;49.574;11.170;2024-03-22T13:48:23;20.70;66.30
13409;DHT22;6775;49.574;11.170;2024-03-22T13:50:51;20.40;66.20
13409;DHT22;6775;49.574;11.170;2024-03-22T13:53:18;20.20;66.10
13409;DHT22;6775;49.574;11.170;2024-03-22T13:55:47;19.90;67.70
13409;DHT22;6775;49.574;11.170;2024-03-22T13:58:15;19.60;69.10
13409;DHT22;6775;49.574;11.170;2024-03-22T14:00:42;19.30;70.50
13409;DHT22;6775;49.574;11.170;2024-03-22T14:03:10;19.10;71.50
13409;DHT22;6775;49.574;11.170;2024-03-22T14:05:38;18.90;72.50
13409;DHT22;6775;49.574;11.170;2024-03-22T14:08:06;18.70;73.80
13409;DHT22;6775;49.574;11.170;2024-03-22T14:10:32;18.60;74.30
13409;DHT22;6775;49.574;11.170;2024-03-22T14:13:00;18.50;74.40
13409;DHT22;6775;49.574;11.170;2024-03-22T14:15:27;18.50;74.50
13409;DHT22;6775;49.574;11.170;2024-03-22T14:17:58;18.40;75.70
13409;DHT22;6775;49.574;11.170;2024-03-22T14:20:24;18.40;75.90
13409;DHT22;6775;49.574;11.170;2024-03-22T14:22:53;18.30;75.50
13409;DHT22;6775;49.574;11.170;2024-03-22T14:25:20;18.30;76.40
13409;DHT22;6775;49.574;11.170;2024-03-22T14:27:47;18.20;77.40
13409;DHT22;6775;49.574;11.170;2024-03-22T14:30:14;18.10;78.30
13409;DHT22;6775;49.574;11.170;2024-03-22T14:32:43;18.00;77.90
13409;DHT22;6775;49.574;11.170;2024-03-22T14:35:10;18.00;78.20
13409;DHT22;6775;49.574;11.170;2024-03-22T14:37:38;17.90;78.70
13409;DHT22;6775;49.574;11.170;2024-03-22T14:40:08;17.70;79.10
13409;DHT22;6775;49.574;11.170;2024-03-22T14:42:37;17.70;80.00
13409;DHT22;6775;49.574;11.170;2024-03-22T14:45:04;17.60;80.20
13409;DHT22;6775;49.574;11.170;2024-03-22T14:47:32;17.50;80.80
13409;DHT22;6775;49.574;11.170;2024-03-22T14:49:58;17.50;80.50
13409;DHT22;6775;49.574;11.170;2024-03-22T14:52:26;17.40;80.80
13409;DHT22;6775;49.574;11.170;2024-03-22T14:54:52;17.30;80.00
13409;DHT22;6775;49.574;11.170;2024-03-22T14:57:21;17.30;80.00
13409;DHT22;6775;49.574;11.170;2024-03-22T14:59:48;17.30;79.50
13409;DHT22;6775;49.574;11.170;2024-03-22T15:02:18;17.20;79.20
13409;DHT22;6775;49.574;11.170;2024-03-22T15:04:45;17.20;79.60
13409;DHT22;6775;49.574;11.170;2024-03-22T15:07:12;17.30;79.90
13409;DHT22;6775;49.574;11.170;2024-03-22T15:09:40;17.20;78.80
13409;DHT22;6775;49.574;11.170;2024-03-22T15:12:08;17.20;79.40
13409;DHT22;6775;49.574;11.170;2024-03-22T15:14:36;17.20;79.20
13409;DHT22;6775;49.574;11.170;2024-03-22T15:17:04;17.10;79.80
13409;DHT22;6775;49.574;11.170;2024-03-22T15:19:32;17.20;80.30
13409;DHT22;6775;49.574;11.170;2024-03-22T15:22:00;17.20;80.00
13409;DHT22;6775;49.574;11.170;2024-03-22T15:24:26;17.10;79.60
13409;DHT22;6775;49.574;11.170;2024-03-22T15:26:54;17.10;80.20
13409;DHT22;6775;49.574;11.170;2024-03-22T15:29:21;17.00;80.60
13409;DHT22;6775;49.574;11.170;2024-03-22T15:31:50;17.00;80.90
13409;DHT22;6775;49.574;11.170;2024-03-22T15:34:16;16.90;81.00
13409;DHT22;6775;49.574;11.170;2024-03-22T15:36:44;16.90;81.40
13409;DHT22;6775;49.574;11.170;2024-03-22T15:39:11;16.80;82.30
13409;DHT22;6775;49.574;11.170;2024-03-22T15:41:39;16.80;83.10